Terminal Aerodrome Forecast
Issued by NWS

Home | Current Version | Previous Version | Text Only | Print | Product List | Glossary On
Versions: 1 2 3 4 5 6 7 8 9 10 11 12 13 14
000
FTAK31 PAJN 301739
TAFAKT
TAF
PAKT 301739Z 3018/0118 15018G27KT 5SM -RA BR OVC025 WS020/14045KT
     FM302000 15027G38KT 3SM +RA BR OVC015 WS020/15050KT
     FM010300 16015G25KT 4SM RA BR BKN010 OVC020 WS020/17040KT
     FM010800 15015G22KT 5SM -RA BR BKN015 OVC025
      AMD LTD TO CLD VIS AND WIND 0106/0115=

USA.gov is the U.S. government's official web portal to all federal, state and local government web resources and services.